Time;durP1;ratioP1;P1;durP2;ratioP2;P2;SDS_P1;SDS_P2;PMS_P1;PMS_P2;Temp;Humidity;BMP_temperature;BMP_pressure;BME280_temperature;BME280_humidity;BME280_pressure;Samples;Min_cycle;Max_cycle;Signal;HPM_P1;HPM_P2
2023/06/24 00:01:14;;;;;;;16.00;12.32;;;15.70;99.90;;;;;;5052817;28;20108;-69
2023/06/24 00:03:40;;;;;;;16.33;11.63;;;15.70;99.90;;;;;;5052877;28;20518;-69
2023/06/24 00:06:05;;;;;;;13.88;11.68;;;15.70;99.90;;;;;;5052724;28;20438;-69
2023/06/24 00:08:34;;;;;;;16.05;11.52;;;15.70;99.90;;;;;;5052776;28;20056;-69
2023/06/24 00:11:02;;;;;;;13.93;11.35;;;15.70;99.90;;;;;;5052779;28;20035;-69
2023/06/24 00:13:28;;;;;;;17.10;12.10;;;15.60;99.90;;;;;;5052385;28;20053;-69
2023/06/24 00:15:54;;;;;;;13.60;10.90;;;15.60;99.90;;;;;;5052710;28;20032;-69
2023/06/24 00:18:21;;;;;;;15.43;12.27;;;15.60;99.90;;;;;;5051427;28;20036;-69
2023/06/24 00:20:46;;;;;;;16.30;12.60;;;15.60;99.90;;;;;;5052774;28;20387;-69
2023/06/24 00:23:16;;;;;;;16.45;13.02;;;15.50;99.90;;;;;;5056270;28;20036;-69
2023/06/24 00:25:42;;;;;;;15.30;13.25;;;15.50;99.90;;;;;;5056314;28;20028;-68
2023/06/24 00:28:08;;;;;;;18.23;14.18;;;15.50;99.90;;;;;;5055959;28;20498;-69
2023/06/24 00:30:33;;;;;;;17.15;13.43;;;15.40;99.90;;;;;;5055744;28;20501;-69
2023/06/24 00:32:59;;;;;;;16.83;14.23;;;15.40;99.90;;;;;;5055925;28;20033;-69
2023/06/24 00:35:24;;;;;;;16.63;13.32;;;15.40;99.90;;;;;;5055747;28;20605;-69
2023/06/24 00:37:50;;;;;;;16.98;13.65;;;15.40;99.90;;;;;;5055834;28;20036;-69
2023/06/24 00:40:16;;;;;;;15.40;12.85;;;15.30;99.90;;;;;;5055778;28;20044;-69
2023/06/24 00:42:44;;;;;;;17.98;13.35;;;15.30;99.90;;;;;;5055704;28;20064;-69
2023/06/24 00:45:10;;;;;;;16.10;13.45;;;15.30;99.90;;;;;;5055785;28;20497;-69
2023/06/24 00:47:36;;;;;;;16.48;12.88;;;15.30;99.90;;;;;;5055880;28;20483;-69
2023/06/24 00:50:02;;;;;;;16.23;13.18;;;15.20;99.90;;;;;;5055535;28;20040;-69
2023/06/24 00:52:28;;;;;;;18.15;14.50;;;15.30;99.90;;;;;;5055615;28;20544;-69
2023/06/24 00:54:53;;;;;;;16.92;13.38;;;15.20;99.90;;;;;;5055253;28;20025;-69
2023/06/24 00:57:23;;;;;;;16.42;14.13;;;15.20;99.90;;;;;;5055360;28;20035;-69
2023/06/24 00:59:53;;;;;;;19.13;14.27;;;15.20;99.90;;;;;;5055635;28;20460;-69
2023/06/24 01:02:22;;;;;;;17.17;13.63;;;15.10;99.90;;;;;;5055463;28;20029;-69
2023/06/24 01:04:48;;;;;;;17.88;13.90;;;15.10;99.90;;;;;;5055213;28;20112;-68
2023/06/24 01:07:15;;;;;;;17.17;13.23;;;15.10;99.90;;;;;;5054225;28;20037;-69
2023/06/24 01:09:41;;;;;;;16.90;13.63;;;15.10;99.90;;;;;;5055558;28;20029;-69
2023/06/24 01:12:07;;;;;;;20.65;15.00;;;15.00;99.90;;;;;;5055462;28;20107;-69
2023/06/24 01:14:35;;;;;;;18.23;13.68;;;15.10;99.90;;;;;;5054919;28;20052;-68
2023/06/24 01:17:23;;;;;;;21.20;14.48;;;15.00;99.90;;;;;;5055354;28;20056;-69
2023/06/24 01:23:25;;;;;;;22.75;16.00;;;15.00;99.90;;;;;;5111181;27;20376;-69
2023/06/24 01:29:22;;;;;;;23.98;16.95;;;15.00;99.90;;;;;;5070585;28;20387;-69
2023/06/24 01:32:10;;;;;;;21.05;16.98;;;14.90;99.90;;;;;;5070536;28;20025;-69
2023/06/24 01:34:48;;;;;;;23.10;16.15;;;14.90;99.90;;;;;;5070532;28;20029;-69
2023/06/24 01:37:20;;;;;;;19.45;15.70;;;14.90;99.90;;;;;;5070449;28;20031;-69
2023/06/24 01:39:52;;;;;;;21.15;16.20;;;14.90;99.90;;;;;;5070463;28;20032;-69
2023/06/24 01:42:19;;;;;;;21.67;15.50;;;14.90;99.90;;;;;;5070447;28;20025;-69
2023/06/24 01:44:48;;;;;;;19.15;14.90;;;14.90;99.90;;;;;;5070352;28;20274;-69
2023/06/24 01:47:18;;;;;;;17.83;13.63;;;14.90;99.90;;;;;;5069032;28;20035;-69
2023/06/24 01:49:45;;;;;;;20.58;15.30;;;14.90;99.90;;;;;;5070228;28;20483;-69
2023/06/24 01:52:12;;;;;;;23.70;16.42;;;14.90;99.90;;;;;;5070484;28;20482;-68
2023/06/24 01:54:40;;;;;;;24.83;15.93;;;14.80;99.90;;;;;;5070123;28;20029;-69
2023/06/24 01:57:08;;;;;;;21.65;15.45;;;14.80;99.90;;;;;;5070394;28;20081;-69
2023/06/24 01:59:36;;;;;;;20.85;14.85;;;14.80;99.90;;;;;;5069852;28;20478;-69
2023/06/24 02:02:04;;;;;;;25.40;15.88;;;14.80;99.90;;;;;;5068610;28;20029;-69
2023/06/24 02:04:31;;;;;;;20.35;15.32;;;14.80;99.90;;;;;;5069736;28;20028;-69
2023/06/24 02:07:01;;;;;;;21.05;15.90;;;14.70;99.90;;;;;;5069733;28;20538;-69
2023/06/24 02:09:30;;;;;;;17.15;13.70;;;14.80;99.90;;;;;;5069791;28;20035;-69
2023/06/24 02:11:58;;;;;;;19.05;15.27;;;14.70;99.90;;;;;;5069930;28;20385;-69
2023/06/24 02:14:25;;;;;;;22.42;15.48;;;14.70;99.90;;;;;;5069737;28;20053;-69
2023/06/24 02:16:56;;;;;;;18.13;14.40;;;14.70;99.90;;;;;;5069814;28;20455;-69
2023/06/24 02:19:22;;;;;;;23.13;16.10;;;14.70;99.90;;;;;;5069403;28;20063;-69
2023/06/24 02:21:51;;;;;;;20.73;15.20;;;14.70;99.90;;;;;;5069608;28;20418;-69
2023/06/24 02:24:18;;;;;;;20.70;15.90;;;14.70;99.90;;;;;;5069303;28;20120;-69
2023/06/24 02:26:44;;;;;;;18.00;15.20;;;14.70;99.90;;;;;;5069245;28;20080;-69
2023/06/24 02:29:12;;;;;;;21.63;15.25;;;14.60;99.90;;;;;;5069311;28;20029;-69
2023/06/24 02:31:38;;;;;;;20.42;16.00;;;14.60;99.90;;;;;;5069477;28;20021;-68
2023/06/24 02:34:04;;;;;;;20.67;15.25;;;14.60;99.90;;;;;;5069412;28;20034;-68
2023/06/24 02:36:29;;;;;;;21.75;15.65;;;14.60;99.90;;;;;;5069247;28;20021;-69
2023/06/24 02:38:55;;;;;;;19.50;15.15;;;14.60;99.90;;;;;;5062885;28;20036;-69
2023/06/24 02:41:20;;;;;;;20.58;15.15;;;14.60;99.90;;;;;;5056048;28;20036;-69
2023/06/24 02:43:46;;;;;;;19.23;15.13;;;14.50;99.90;;;;;;5055967;28;20063;-69
2023/06/24 02:46:14;;;;;;;20.40;15.65;;;14.50;99.90;;;;;;5055985;28;20078;-69
2023/06/24 02:48:40;;;;;;;22.33;15.52;;;14.50;99.90;;;;;;5055777;28;20036;-69
2023/06/24 02:51:09;;;;;;;27.50;17.10;;;14.50;99.90;;;;;;5055669;28;20053;-69
2023/06/24 02:53:37;;;;;;;18.83;14.68;;;14.40;99.90;;;;;;5055689;28;20056;-69
2023/06/24 02:56:05;;;;;;;22.85;16.50;;;14.40;99.90;;;;;;5055795;28;20017;-69
2023/06/24 02:58:32;;;;;;;21.85;17.70;;;14.40;99.90;;;;;;5055867;28;20119;-68
2023/06/24 03:01:03;;;;;;;22.02;16.55;;;14.40;99.90;;;;;;5055602;28;20025;-69
2023/06/24 03:03:29;;;;;;;23.60;17.23;;;14.40;99.90;;;;;;5055735;28;20482;-69
2023/06/24 03:05:56;;;;;;;21.30;15.82;;;14.40;99.90;;;;;;5055504;28;20043;-69
2023/06/24 03:08:24;;;;;;;19.95;15.30;;;14.40;99.90;;;;;;5055401;28;20391;-69
2023/06/24 03:10:51;;;;;;;20.30;15.98;;;14.40;99.90;;;;;;5055658;28;20104;-68
2023/06/24 03:13:17;;;;;;;20.50;14.98;;;14.40;99.90;;;;;;5055420;28;20021;-69
2023/06/24 03:15:42;;;;;;;22.50;15.50;;;14.40;99.90;;;;;;5055261;28;20032;-69
2023/06/24 03:18:08;;;;;;;26.55;17.85;;;14.40;99.90;;;;;;5055548;28;20021;-69
2023/06/24 03:20:38;;;;;;;20.38;15.40;;;14.40;99.90;;;;;;5055340;28;20479;-69
2023/06/24 03:23:06;;;;;;;22.02;16.05;;;14.40;99.90;;;;;;5055136;28;20020;-68
2023/06/24 03:25:32;;;;;;;24.38;16.20;;;14.40;99.90;;;;;;5055369;28;20075;-69
2023/06/24 03:27:58;;;;;;;25.02;18.75;;;14.50;99.90;;;;;;5054862;28;20454;-68
2023/06/24 03:30:24;;;;;;;23.80;18.10;;;14.50;99.90;;;;;;5055247;28;20108;-69
2023/06/24 03:32:49;;;;;;;23.42;17.65;;;14.50;99.90;;;;;;5054849;28;20154;-69
2023/06/24 03:35:15;;;;;;;26.00;17.30;;;14.50;99.90;;;;;;5055007;28;20033;-69
2023/06/24 03:37:41;;;;;;;24.40;18.67;;;14.50;99.90;;;;;;5055037;28;20040;-69
2023/06/24 03:40:08;;;;;;;27.23;19.48;;;14.50;99.90;;;;;;5054818;28;20083;-69
2023/06/24 03:42:33;;;;;;;29.65;21.80;;;14.60;99.90;;;;;;5054940;28;20028;-69
2023/06/24 03:44:59;;;;;;;31.33;20.15;;;14.60;99.90;;;;;;5055052;28;20040;-69
2023/06/24 03:47:24;;;;;;;29.80;20.67;;;14.70;99.90;;;;;;5054666;28;20037;-69
2023/06/24 03:49:50;;;;;;;28.60;20.25;;;14.80;99.90;;;;;;5054498;28;20025;-69
2023/06/24 03:52:17;;;;;;;27.48;20.05;;;14.80;99.90;;;;;;5053916;28;20025;-69
2023/06/24 03:54:43;;;;;;;30.48;22.10;;;14.90;99.90;;;;;;5054705;28;20033;-69
2023/06/24 03:57:08;;;;;;;36.08;23.50;;;15.00;99.90;;;;;;5054542;28;20029;-69
2023/06/24 03:59:34;;;;;;;29.83;22.13;;;15.10;99.90;;;;;;5054469;28;20029;-69
2023/06/24 04:02:00;;;;;;;29.30;21.58;;;15.20;99.90;;;;;;5054397;28;20505;-70
2023/06/24 04:04:26;;;;;;;31.45;21.50;;;15.20;99.90;;;;;;5054171;28;20033;-70
2023/06/24 04:06:51;;;;;;;31.85;23.15;;;15.30;99.90;;;;;;5054478;28;20032;-69
2023/06/24 04:09:17;;;;;;;30.08;20.98;;;15.40;99.90;;;;;;5054538;28;20211;-70
2023/06/24 04:11:43;;;;;;;25.95;20.65;;;15.60;99.90;;;;;;5054509;28;20032;-69
2023/06/24 04:14:09;;;;;;;29.80;20.27;;;15.80;99.90;;;;;;5054350;28;20036;-70
2023/06/24 04:16:35;;;;;;;31.45;23.20;;;16.00;99.90;;;;;;5054328;28;20029;-70
2023/06/24 04:19:01;;;;;;;27.08;20.05;;;16.10;99.90;;;;;;5054000;28;20170;-70
2023/06/24 04:21:27;;;;;;;28.70;21.05;;;16.30;99.90;;;;;;5054053;28;20025;-70
2023/06/24 04:23:52;;;;;;;25.83;19.92;;;16.40;99.90;;;;;;5054034;28;20551;-69
2023/06/24 04:26:18;;;;;;;32.15;21.63;;;16.60;99.90;;;;;;5054005;28;20060;-69
2023/06/24 04:28:44;;;;;;;28.50;19.33;;;16.70;99.90;;;;;;5053577;28;20041;-70
2023/06/24 04:31:10;;;;;;;31.33;21.48;;;16.90;99.90;;;;;;5054084;28;20078;-69
2023/06/24 04:33:35;;;;;;;26.55;18.80;;;17.00;99.90;;;;;;5054070;28;20029;-69
2023/06/24 04:36:01;;;;;;;26.30;19.27;;;17.30;99.90;;;;;;5053711;28;20076;-69
2023/06/24 04:38:27;;;;;;;25.10;17.77;;;17.60;99.90;;;;;;5053791;28;20060;-69
2023/06/24 04:40:52;;;;;;;23.70;17.60;;;17.80;96.90;;;;;;5053829;28;20063;-69
2023/06/24 04:43:18;;;;;;;23.02;17.33;;;18.20;76.20;;;;;;5053753;28;20055;-70
2023/06/24 04:45:44;;;;;;;27.35;16.65;;;18.60;37.00;;;;;;5053896;28;20071;-70
2023/06/24 04:48:09;;;;;;;21.67;15.63;;;19.20;6.70;;;;;;5053635;28;20036;-70
2023/06/24 04:50:35;;;;;;;23.90;15.50;;;19.70;1.00;;;;;;5053522;28;20025;-70
2023/06/24 04:53:01;;;;;;;20.98;15.38;;;19.90;1.00;;;;;;5053393;28;20029;-70
2023/06/24 04:55:29;;;;;;;20.70;15.40;;;20.10;1.00;;;;;;5053496;28;20017;-70
2023/06/24 04:57:55;;;;;;;20.27;14.48;;;20.30;1.00;;;;;;5053666;28;20501;-70
2023/06/24 05:00:23;;;;;;;20.73;14.65;;;20.10;1.00;;;;;;5053676;28;20071;-70
2023/06/24 05:02:48;;;;;;;16.83;13.80;;;19.80;1.00;;;;;;5052992;28;20036;-70
2023/06/24 05:05:14;;;;;;;18.60;14.65;;;19.50;1.00;;;;;;5053362;28;20039;-69
2023/06/24 05:07:39;;;;;;;23.42;15.27;;;19.50;1.00;;;;;;5053194;28;20051;-70
2023/06/24 05:10:05;;;;;;;24.65;15.65;;;19.40;1.00;;;;;;5053471;28;20036;-70
2023/06/24 05:12:31;;;;;;;22.10;15.15;;;19.20;1.00;;;;;;5053538;28;20033;-70
2023/06/24 05:14:57;;;;;;;22.90;15.65;;;19.00;1.00;;;;;;5053405;28;20542;-70
2023/06/24 05:17:22;;;;;;;20.92;15.35;;;18.90;1.00;;;;;;5053251;28;20029;-70
2023/06/24 05:19:48;;;;;;;20.85;15.27;;;19.10;8.40;;;;;;5053201;28;20021;-70
2023/06/24 05:22:13;;;;;;;19.63;14.32;;;19.30;1.00;;;;;;5052896;28;20029;-70
2023/06/24 05:24:41;;;;;;;17.40;13.32;;;19.50;1.00;;;;;;5053245;28;20021;-70
2023/06/24 05:27:07;;;;;;;17.90;13.57;;;20.30;1.00;;;;;;5052892;28;20045;-70
2023/06/24 05:29:33;;;;;;;13.90;12.40;;;21.40;1.00;;;;;;5053252;28;20032;-68
2023/06/24 05:31:59;;;;;;;17.23;12.63;;;22.20;99.90;;;;;;5053055;28;20483;-68
2023/06/24 05:34:25;;;;;;;17.67;11.82;;;22.80;26.50;;;;;;5053036;28;20108;-68
2023/06/24 05:36:51;;;;;;;17.20;11.98;;;23.30;99.90;;;;;;5053127;28;20025;-67
2023/06/24 05:39:17;;;;;;;16.95;11.27;;;23.70;1.00;;;;;;5052941;28;20029;-68
2023/06/24 05:41:42;;;;;;;18.60;12.05;;;24.20;99.90;;;;;;5053085;28;20025;-68
2023/06/24 05:44:10;;;;;;;15.52;11.60;;;24.10;99.90;;;;;;5052913;28;20026;-68
2023/06/24 05:46:36;;;;;;;18.83;10.80;;;23.20;99.90;;;;;;5052790;28;20155;-68
2023/06/24 05:49:02;;;;;;;15.98;11.55;;;23.30;1.00;;;;;;5053072;28;20025;-68
2023/06/24 05:51:27;;;;;;;14.98;10.85;;;23.20;1.00;;;;;;5053048;28;20041;-68
2023/06/24 05:53:53;;;;;;;14.68;11.48;;;23.70;99.90;;;;;;5053068;28;20017;-68
2023/06/24 05:56:20;;;;;;;13.07;10.57;;;23.90;99.90;;;;;;5052841;28;20075;-68
2023/06/24 05:58:45;;;;;;;14.90;11.25;;;24.20;99.90;;;;;;5052947;28;20029;-68
2023/06/24 06:01:11;;;;;;;12.60;10.30;;;24.10;24.90;;;;;;5052877;28;20107;-68
2023/06/24 06:03:36;;;;;;;11.95;10.48;;;24.80;1.00;;;;;;5052900;28;20090;-69
2023/06/24 06:06:02;;;;;;;14.13;10.50;;;25.30;99.90;;;;;;5052612;28;20033;-69
2023/06/24 06:08:28;;;;;;;11.05;9.88;;;25.80;99.90;;;;;;5052623;28;20025;-69
2023/06/24 06:10:53;;;;;;;12.77;10.63;;;26.00;1.00;;;;;;5052733;28;20025;-69
2023/06/24 06:13:19;;;;;;;11.63;10.48;;;26.10;1.00;;;;;;5052755;28;20026;-69
2023/06/24 06:15:45;;;;;;;14.70;10.00;;;26.20;1.00;;;;;;5056556;28;20017;-69
2023/06/24 06:18:11;;;;;;;13.90;10.30;;;26.60;99.90;;;;;;5056566;28;20040;-69
2023/06/24 06:20:37;;;;;;;11.75;10.10;;;26.00;99.90;;;;;;5056355;28;20436;-69
2023/06/24 06:23:03;;;;;;;14.15;10.20;;;26.20;1.00;;;;;;5056265;28;20065;-69
2023/06/24 06:25:28;;;;;;;17.52;10.02;;;26.90;99.90;;;;;;5056278;28;20414;-69
2023/06/24 06:27:54;;;;;;;12.80;9.02;;;26.70;99.90;;;;;;5055977;28;20081;-70
2023/06/24 06:30:20;;;;;;;15.57;10.00;;;27.00;99.90;;;;;;5056459;28;20064;-69
2023/06/24 06:32:45;;;;;;;11.45;9.32;;;25.80;99.90;;;;;;5056158;28;20017;-69
2023/06/24 06:35:11;;;;;;;13.63;10.27;;;26.40;99.90;;;;;;5056252;28;20079;-69
2023/06/24 06:37:37;;;;;;;10.70;9.55;;;26.60;99.90;;;;;;5056012;28;20059;-69
2023/06/24 06:40:02;;;;;;;11.45;9.95;;;27.20;1.00;;;;;;5056174;28;20083;-69
2023/06/24 06:42:29;;;;;;;12.23;9.73;;;26.50;92.90;;;;;;5055759;28;20017;-69
2023/06/24 06:44:54;;;;;;;14.32;9.13;;;26.50;99.90;;;;;;5054501;28;20470;-69
2023/06/24 06:47:20;;;;;;;11.38;8.73;;;27.00;71.10;;;;;;5056024;28;20086;-69
2023/06/24 06:49:46;;;;;;;11.63;8.57;;;27.20;26.90;;;;;;5055669;28;20021;-69
2023/06/24 06:52:11;;;;;;;11.43;9.38;;;26.80;1.00;;;;;;5055950;28;20024;-69
2023/06/24 06:54:37;;;;;;;12.68;9.75;;;25.30;1.00;;;;;;5055870;28;20021;-69
2023/06/24 06:57:03;;;;;;;14.48;9.80;;;25.00;1.00;;;;;;5055898;28;20033;-69
2023/06/24 06:59:30;;;;;;;13.85;10.30;;;25.00;20.50;;;;;;5055685;28;20475;-69
2023/06/24 07:01:56;;;;;;;13.95;9.35;;;25.00;1.00;;;;;;5055511;28;20033;-69
2023/06/24 07:04:22;;;;;;;12.88;7.97;;;26.00;1.00;;;;;;5055581;28;20032;-70
2023/06/24 07:06:47;;;;;;;10.25;8.05;;;27.20;25.80;;;;;;5055472;28;20028;-70
2023/06/24 07:09:13;;;;;;;10.93;8.43;;;29.40;99.90;;;;;;5055680;28;20024;-70
2023/06/24 07:11:38;;;;;;;10.23;7.35;;;29.20;99.90;;;;;;5055361;28;20075;-70
2023/06/24 07:14:04;;;;;;;12.07;8.15;;;28.70;52.00;;;;;;5055558;28;20037;-70
2023/06/24 07:16:29;;;;;;;9.25;7.53;;;27.90;99.90;;;;;;5055416;28;20032;-70
2023/06/24 07:18:55;;;;;;;11.07;7.05;;;28.40;99.90;;;;;;5055440;28;20111;-70
2023/06/24 07:21:21;;;;;;;9.85;7.53;;;28.40;99.90;;;;;;5055440;28;20065;-70
2023/06/24 07:23:46;;;;;;;9.07;7.30;;;28.50;99.90;;;;;;5055071;28;20029;-70
2023/06/24 07:26:12;;;;;;;8.65;6.97;;;29.10;38.10;;;;;;5055196;28;20115;-70
2023/06/24 07:28:37;;;;;;;12.70;7.90;;;29.30;39.30;;;;;;5054862;28;20061;-70
2023/06/24 07:31:03;;;;;;;8.35;7.05;;;29.00;99.90;;;;;;5055223;28;20036;-70
2023/06/24 07:33:30;;;;;;;8.82;7.20;;;29.20;1.00;;;;;;5055249;28;20025;-70
2023/06/24 07:35:56;;;;;;;8.52;7.35;;;29.70;27.10;;;;;;5055130;28;20071;-70
2023/06/24 07:38:22;;;;;;;10.07;7.70;;;29.90;99.90;;;;;;5054906;28;20112;-70
2023/06/24 07:40:47;;;;;;;9.27;7.18;;;29.80;1.00;;;;;;5054714;28;20065;-70
2023/06/24 07:43:13;;;;;;;9.65;8.25;;;30.10;1.00;;;;;;5054981;28;20033;-70
2023/06/24 07:45:39;;;;;;;11.30;8.55;;;29.30;1.00;;;;;;5054962;28;20067;-70
2023/06/24 07:48:05;;;;;;;8.77;7.93;;;28.30;99.90;;;;;;5054748;28;20029;-70
2023/06/24 07:50:31;;;;;;;9.88;8.02;;;29.00;99.90;;;;;;5054700;28;20025;-70
2023/06/24 07:52:57;;;;;;;10.23;7.85;;;29.10;99.90;;;;;;5054490;28;20048;-70
2023/06/24 07:55:22;;;;;;;9.77;6.72;;;28.60;99.90;;;;;;5054575;28;20052;-70
2023/06/24 07:57:48;;;;;;;7.65;6.85;;;28.50;99.90;;;;;;5054738;28;20036;-69
2023/06/24 08:00:15;;;;;;;7.97;7.18;;;29.30;99.90;;;;;;5054606;28;20063;-70
2023/06/24 08:02:41;;;;;;;10.90;8.10;;;29.30;99.90;;;;;;5054605;28;20395;-70
2023/06/24 08:05:08;;;;;;;9.65;7.60;;;28.30;99.90;;;;;;5054518;28;20029;-70
2023/06/24 08:07:34;;;;;;;8.80;7.13;;;28.60;99.90;;;;;;5054208;28;20060;-70
2023/06/24 08:10:00;;;;;;;8.00;6.25;;;29.30;99.90;;;;;;5054309;28;20067;-70
2023/06/24 08:12:26;;;;;;;10.00;7.20;;;30.40;99.90;;;;;;5054118;28;20072;-70
2023/06/24 08:14:51;;;;;;;8.63;7.82;;;30.50;99.90;;;;;;5054511;28;20036;-70
2023/06/24 08:17:17;;;;;;;9.52;7.68;;;30.80;99.90;;;;;;5054106;28;20482;-70
2023/06/24 08:19:42;;;;;;;9.10;7.32;;;30.00;99.90;;;;;;5054292;28;20036;-70
2023/06/24 08:22:08;;;;;;;9.88;8.02;;;29.90;99.90;;;;;;5054264;28;20475;-70
2023/06/24 08:24:33;;;;;;;9.70;7.80;;;29.80;99.90;;;;;;5053969;28;20029;-70
2023/06/24 08:26:59;;;;;;;9.23;7.95;;;29.70;99.90;;;;;;5053664;28;20107;-70
2023/06/24 08:29:25;;;;;;;9.82;7.50;;;30.10;99.90;;;;;;5054063;28;20032;-70
2023/06/24 08:31:50;;;;;;;9.82;7.38;;;30.50;99.90;;;;;;5053960;28;20114;-70
2023/06/24 08:34:16;;;;;;;8.65;7.55;;;31.20;99.90;;;;;;5053962;28;20364;-70
2023/06/24 08:36:41;;;;;;;8.95;7.47;;;31.00;99.90;;;;;;5053596;28;20072;-70
2023/06/24 08:39:07;;;;;;;9.77;7.85;;;30.80;99.90;;;;;;5053736;28;20098;-70
2023/06/24 08:41:33;;;;;;;10.55;8.30;;;29.20;99.90;;;;;;5053926;28;20032;-70
2023/06/24 08:43:59;;;;;;;10.10;7.38;;;29.40;99.90;;;;;;5053700;28;20429;-70
2023/06/24 08:46:25;;;;;;;9.10;8.05;;;29.40;99.90;;;;;;5053842;28;20029;-70
2023/06/24 08:48:59;;;;;;;10.52;7.97;;;30.20;99.90;;;;;;5053607;28;20028;-70
2023/06/24 08:51:27;;;;;;;10.50;7.55;;;30.50;99.90;;;;;;5053743;28;20436;-70
2023/06/24 08:53:53;;;;;;;8.70;6.97;;;31.20;99.90;;;;;;5053741;28;20055;-70
2023/06/24 08:56:19;;;;;;;7.20;6.30;;;31.00;99.90;;;;;;5053701;28;20066;-70
2023/06/24 08:58:45;;;;;;;10.90;7.82;;;30.60;1.00;;;;;;5053530;28;20433;-70
2023/06/24 09:01:11;;;;;;;10.38;7.45;;;29.70;99.90;;;;;;5053279;28;20029;-70
2023/06/24 09:03:39;;;;;;;9.90;8.10;;;;;;;;;;5053127;28;20036;-70
2023/06/24 09:06:05;;;;;;;10.52;7.97;;;29.00;1.00;;;;;;5053492;28;20064;-70
2023/06/24 09:08:31;;;;;;;9.48;7.97;;;29.80;1.00;;;;;;5053192;28;20063;-70
2023/06/24 09:10:57;;;;;;;10.23;7.55;;;30.00;1.00;;;;;;5053496;28;20017;-70
2023/06/24 09:13:34;;;;;;;10.40;7.85;;;31.10;99.90;;;;;;5053020;28;20035;-70
2023/06/24 09:16:07;;;;;;;9.55;8.55;;;30.80;99.90;;;;;;5053380;28;20024;-70
2023/06/24 09:18:33;;;;;;;10.38;8.15;;;30.40;99.90;;;;;;5053230;28;20487;-70
2023/06/24 09:21:02;;;;;;;12.88;8.35;;;30.00;99.90;;;;;;5053352;28;20068;-70
2023/06/24 09:23:27;;;;;;;9.18;7.68;;;30.40;1.00;;;;;;5053327;28;20033;-70
2023/06/24 09:25:57;;;;;;;10.88;8.52;;;30.10;99.90;;;;;;5053186;28;20536;-70
2023/06/24 09:28:27;;;;;;;12.70;9.50;;;29.60;32.70;;;;;;5052662;28;20132;-70
2023/06/24 09:31:09;;;;;;;10.68;9.13;;;29.50;26.20;;;;;;5053333;28;20064;-70
2023/06/24 09:33:35;;;;;;;12.38;9.40;;;29.60;28.80;;;;;;5052837;28;20025;-70
2023/06/24 09:36:03;;;;;;;9.65;7.68;;;29.90;17.30;;;;;;5053223;28;20075;-70
2023/06/24 09:38:35;;;;;;;8.95;7.70;;;30.90;99.90;;;;;;5053120;28;20026;-70
2023/06/24 09:41:04;;;;;;;11.63;8.88;;;31.50;1.00;;;;;;5052967;28;20487;-70
2023/06/24 09:43:42;;;;;;;12.15;9.80;;;30.60;74.70;;;;;;5053121;28;20502;-69
2023/06/24 09:46:08;;;;;;;11.85;9.38;;;29.70;99.90;;;;;;5053092;28;20414;-70
2023/06/24 09:48:34;;;;;;;11.95;10.63;;;30.60;99.90;;;;;;5053196;28;20033;-70
2023/06/24 09:51:02;;;;;;;11.35;9.95;;;29.70;99.90;;;;;;5057118;28;20029;-69
2023/06/24 09:53:32;;;;;;;11.52;8.90;;;;;;;;;;5057015;28;20021;-70
2023/06/24 09:56:00;;;;;;;11.32;9.25;;;;;;;;;;5057011;28;20029;-69
2023/06/24 09:58:26;;;;;;;11.75;9.40;;;28.20;74.70;;;;;;5056860;28;20029;-69
2023/06/24 10:00:52;;;;;;;11.93;9.07;;;28.40;10.10;;;;;;5056584;28;20210;-69
2023/06/24 10:03:18;;;;;;;13.43;9.05;;;29.00;22.90;;;;;;5056940;28;20043;-69
2023/06/24 10:05:44;;;;;;;11.52;9.32;;;28.70;92.40;;;;;;5056834;28;20438;-69
2023/06/24 10:08:12;;;;;;;10.82;8.93;;;;;;;;;;5056604;28;20064;-69
2023/06/24 10:10:37;;;;;;;12.50;10.85;;;27.60;1.00;;;;;;5056693;28;20474;-69
2023/06/24 10:13:03;;;;;;;13.18;10.13;;;26.10;99.90;;;;;;5056537;28;20036;-69
2023/06/24 10:15:29;;;;;;;10.82;9.73;;;27.40;99.90;;;;;;5056546;28;20463;-69
2023/06/24 10:17:54;;;;;;;13.18;9.38;;;28.00;99.90;;;;;;5056685;28;20394;-70
2023/06/24 10:20:27;;;;;;;12.35;10.32;;;28.20;1.00;;;;;;5056617;28;20057;-70
2023/06/24 10:22:53;;;;;;;11.32;9.90;;;27.50;99.90;;;;;;5056605;28;20036;-70
2023/06/24 10:25:18;;;;;;;10.15;9.02;;;28.80;99.90;;;;;;5056438;28;20040;-69
2023/06/24 10:27:44;;;;;;;8.52;7.72;;;30.20;99.90;;;;;;5055985;28;20101;-70
2023/06/24 10:30:19;;;;;;;9.52;8.13;;;31.10;99.90;;;;;;5056385;28;20483;-70
2023/06/24 10:32:45;;;;;;;10.30;7.38;;;30.60;17.10;;;;;;5056312;28;20020;-70
2023/06/24 10:35:29;;;;;;;12.70;8.95;;;29.50;99.90;;;;;;5056232;28;20021;-70
2023/06/24 10:37:57;;;;;;;10.35;9.02;;;28.90;99.90;;;;;;5056212;28;20086;-70
2023/06/24 10:40:40;;;;;;;12.75;9.68;;;28.00;1.00;;;;;;5055977;28;20080;-69
2023/06/24 10:43:25;;;;;;;;;;;28.10;6.80;;;;;;5056561;28;20025;-70
2023/06/24 10:45:51;;;;;;;11.07;8.10;;;27.70;99.90;;;;;;5055752;28;19909;-70
2023/06/24 10:48:21;;;;;;;13.18;8.80;;;27.40;1.00;;;;;;5056107;28;20033;-70
2023/06/24 10:50:47;;;;;;;12.00;9.23;;;27.40;1.00;;;;;;5055758;28;20021;-70
2023/06/24 10:53:13;;;;;;;11.85;10.65;;;27.60;1.00;;;;;;5055674;28;20025;-70
2023/06/24 10:55:39;;;;;;;10.55;9.45;;;27.50;29.20;;;;;;5055931;28;20032;-70
2023/06/24 10:58:09;;;;;;;10.80;8.52;;;27.10;1.00;;;;;;5055716;28;20406;-69
2023/06/24 11:00:35;;;;;;;11.63;9.02;;;28.50;1.00;;;;;;5055375;28;20390;-69
2023/06/24 11:03:18;;;;;;;11.07;8.07;;;28.30;1.00;;;;;;5055797;28;20032;-70
2023/06/24 11:05:45;;;;;;;9.57;8.18;;;28.40;1.00;;;;;;5055544;28;20478;-70
2023/06/24 11:08:11;;;;;;;9.10;7.35;;;28.60;1.00;;;;;;5055378;28;20028;-70
2023/06/24 11:10:45;;;;;;;10.27;8.10;;;28.20;1.00;;;;;;5055447;28;20082;-69
2023/06/24 11:13:12;;;;;;;8.48;7.68;;;27.40;1.00;;;;;;5055342;28;20021;-69
2023/06/24 11:15:39;;;;;;;8.68;7.25;;;26.70;99.90;;;;;;5055533;28;20033;-69
2023/06/24 11:18:08;;;;;;;11.65;7.75;;;26.50;99.90;;;;;;5055332;28;20056;-69
2023/06/24 11:20:36;;;;;;;12.15;8.15;;;26.60;99.90;;;;;;5055405;28;20082;-69
2023/06/24 11:23:02;;;;;;;8.60;7.70;;;26.80;99.90;;;;;;5055145;28;20044;-69
2023/06/24 11:25:27;;;;;;;13.95;9.13;;;27.70;99.90;;;;;;5054898;28;20414;-69
2023/06/24 11:27:53;;;;;;;10.95;7.93;;;28.20;99.90;;;;;;5054923;28;20055;-69
2023/06/24 11:30:19;;;;;;;12.93;9.23;;;27.90;99.90;;;;;;5055353;28;20021;-69
2023/06/24 11:32:45;;;;;;;9.68;8.07;;;27.30;99.90;;;;;;5055197;28;20033;-69
2023/06/24 11:35:14;;;;;;;11.25;7.95;;;27.30;99.90;;;;;;5054964;28;20025;-70
2023/06/24 11:37:45;;;;;;;12.60;8.55;;;28.20;99.90;;;;;;5054899;28;20025;-69
2023/06/24 11:40:12;;;;;;;9.23;8.27;;;28.00;99.90;;;;;;5054647;28;20180;-69
2023/06/24 11:42:40;;;;;;;10.95;7.45;;;28.60;99.90;;;;;;5054753;28;20060;-69
2023/06/24 11:45:08;;;;;;;10.30;7.20;;;28.60;99.90;;;;;;5054794;28;20425;-70
2023/06/24 11:47:34;;;;;;;9.02;6.82;;;28.50;99.90;;;;;;5054653;28;20029;-70
2023/06/24 11:50:02;;;;;;;9.55;7.22;;;28.10;99.90;;;;;;5054435;28;20487;-70
2023/06/24 11:52:49;;;;;;;8.45;6.82;;;28.20;99.90;;;;;;5054854;28;20017;-69
2023/06/24 11:55:23;;;;;;;9.30;7.60;;;28.60;99.90;;;;;;5054522;28;20501;-70
2023/06/24 12:00:38;;;;;;;8.02;7.28;;;28.50;99.90;;;;;;5111167;27;20496;-71
2023/06/24 12:03:09;;;;;;;9.65;6.50;;;28.80;88.90;;;;;;5111117;28;20050;-71
2023/06/24 12:05:36;;;;;;;8.95;5.72;;;28.70;99.90;;;;;;5111209;28;20420;-70
2023/06/24 12:08:04;;;;;;;9.57;6.22;;;28.90;99.90;;;;;;5111244;28;20024;-71
2023/06/24 12:10:33;;;;;;;7.25;5.60;;;28.70;99.90;;;;;;5111190;28;20020;-70
2023/06/24 12:12:59;;;;;;;5.88;5.28;;;29.00;99.90;;;;;;5111180;28;20106;-70
2023/06/24 12:15:26;;;;;;;9.75;6.35;;;28.70;1.00;;;;;;5110921;28;20020;-70
2023/06/24 12:17:51;;;;;;;8.98;6.07;;;28.40;1.00;;;;;;5110750;28;20028;-70
2023/06/24 12:20:18;;;;;;;7.50;6.25;;;28.70;99.90;;;;;;5110757;28;20032;-70
2023/06/24 12:22:45;;;;;;;6.55;5.80;;;28.80;99.90;;;;;;5110740;28;20051;-71
2023/06/24 12:25:10;;;;;;;8.85;6.00;;;28.90;99.90;;;;;;5110682;28;20076;-71
2023/06/24 12:27:37;;;;;;;9.32;6.07;;;29.20;99.90;;;;;;5110636;28;20371;-70
2023/06/24 12:30:03;;;;;;;8.98;6.00;;;28.90;99.90;;;;;;5110743;28;20028;-71
2023/06/24 12:32:28;;;;;;;8.27;5.85;;;28.90;1.00;;;;;;5110754;28;20363;-70
2023/06/24 12:34:54;;;;;;;10.75;6.43;;;29.10;1.00;;;;;;5110695;28;20028;-70
2023/06/24 12:37:19;;;;;;;7.57;5.82;;;29.10;1.00;;;;;;5110573;28;20482;-70
2023/06/24 12:39:45;;;;;;;9.73;6.05;;;29.00;1.00;;;;;;5110594;28;20084;-70
2023/06/24 12:42:11;;;;;;;7.40;6.50;;;28.70;99.90;;;;;;5110441;28;20385;-70
2023/06/24 12:44:37;;;;;;;6.93;6.20;;;28.70;99.90;;;;;;5110488;28;20067;-70
2023/06/24 12:47:02;;;;;;;6.72;6.03;;;28.90;99.90;;;;;;5110265;28;20127;-69